Hollis, Illinois
Current Conditions -  °F | °C
As of 3:09 PM on Sunday 23 Nov 2014 (Local Time) from KPIA Reporting Station
Moderate Rain Moderate Rain  
Wind Chill: 53°   Ceiling: 600
Heat Index: 53°   Visibility: 3mi
Dew Point: 49°   Wind: 10mph
Humidity: 86%   Direction: 160°SSE
Pressure: 29.41"   Gusts: NA
Location:  40.6465°N, 89.6859°W
Report Text: KPIA 232109Z 16009KT 3SM RA BR BKN006 OVC011 12/09 A2941 RMK AO2 CIG 005V009 P0003 T01170094
Loading
Personal Weather Stations






























Interactive Weather Map New forecast layout! Learn more

10-Day Weather Forecast

Advertisements
Track Severe Weather on mobile